Time;durP1;ratioP1;P1;durP2;ratioP2;P2;SDS_P1;SDS_P2;PMS_P1;PMS_P2;Temp;Humidity;BMP_temperature;BMP_pressure;BME280_temperature;BME280_humidity;BME280_pressure;Samples;Min_cycle;Max_cycle;Signal;HPM_P1;HPM_P2
2022/03/10 00:00:03;;;;;;;9.05;5.10;;;;;;;2.00;53.54;101422.13;5065063;28;20055;-68
2022/03/10 00:02:29;;;;;;;6.55;4.32;;;;;;;1.95;53.59;101425.72;5065804;28;20055;-74
2022/03/10 00:04:56;;;;;;;8.35;4.95;;;;;;;1.90;53.71;101425.78;5064956;28;20048;-71
2022/03/10 00:07:23;;;;;;;9.80;5.38;;;;;;;1.84;53.76;101425.91;5065236;28;20650;-66
2022/03/10 00:09:52;;;;;;;11.80;6.05;;;;;;;1.79;53.67;101425.97;5064384;28;20499;-72
2022/03/10 00:12:19;;;;;;;9.45;5.75;;;;;;;1.75;54.12;101431.25;5063856;28;20127;-73
2022/03/10 00:14:46;;;;;;;9.27;4.78;;;;;;;1.72;54.01;101433.03;5065068;28;20087;-72
2022/03/10 00:17:13;;;;;;;15.88;6.03;;;;;;;1.68;54.10;101436.56;5064577;28;20151;-72
2022/03/10 00:19:40;;;;;;;8.80;5.47;;;;;;;1.64;54.07;101437.50;5064923;28;20429;-72
2022/03/10 00:22:11;;;;;;;10.55;4.93;;;;;;;1.61;54.24;101431.50;5064231;28;20047;-68
2022/03/10 00:24:38;;;;;;;10.52;5.72;;;;;;;1.59;54.05;101439.31;5065419;28;20091;-74
2022/03/10 00:27:07;;;;;;;9.70;5.70;;;;;;;1.56;54.12;101441.13;5067538;28;20049;-73
2022/03/10 00:29:34;;;;;;;9.35;4.85;;;;;;;1.49;54.20;101448.16;5070984;28;20275;-74
2022/03/10 00:32:01;;;;;;;12.18;6.32;;;;;;;1.48;54.08;101444.72;5074309;28;20185;-75
2022/03/10 00:34:30;;;;;;;11.30;7.47;;;;;;;1.44;54.45;101448.25;5077833;28;20113;-73
2022/03/10 00:36:57;;;;;;;14.63;6.85;;;;;;;1.42;54.18;101451.75;5071755;28;20456;-76
2022/03/10 00:39:24;;;;;;;11.48;6.63;;;;;;;1.37;54.33;101453.56;5067551;28;20063;-77
2022/03/10 00:41:50;;;;;;;14.13;6.53;;;;;;;1.33;54.56;101464.03;5066937;28;20541;-77
2022/03/10 00:44:19;;;;;;;9.77;6.03;;;;;;;1.29;54.42;101469.28;5067126;28;20055;-76
2022/03/10 00:46:46;;;;;;;18.88;7.82;;;;;;;1.26;54.49;101467.59;5066704;28;20063;-77
2022/03/10 00:49:13;;;;;;;14.68;8.07;;;;;;;1.24;54.40;101473.69;5068103;28;20048;-75
2022/03/10 00:51:40;;;;;;;13.80;6.82;;;;;;;1.20;54.62;101475.47;5065166;28;20647;-77
2022/03/10 00:54:07;;;;;;;8.93;5.70;;;;;;;1.20;54.72;101475.47;5066006;28;20045;-72
2022/03/10 00:56:34;;;;;;;16.30;6.90;;;;;;;1.17;54.88;101475.53;5065498;28;20136;-72
2022/03/10 00:59:01;;;;;;;20.30;8.40;;;;;;;1.11;54.54;101479.06;5065358;28;20057;-73
2022/03/10 01:01:29;;;;;;;16.50;8.07;;;;;;;1.09;54.57;101485.19;5065342;28;20080;-74
2022/03/10 01:03:56;;;;;;;18.35;7.85;;;;;;;1.05;54.84;101488.72;5064735;28;20601;-74
2022/03/10 01:06:23;;;;;;;18.95;8.70;;;;;;;1.02;54.75;101496.56;5063755;28;20049;-71
2022/03/10 01:08:50;;;;;;;21.50;7.93;;;;;;;0.97;54.61;101499.19;5046472;28;20045;-71
2022/03/10 01:11:18;;;;;;;18.25;7.65;;;;;;;0.93;55.11;101495.78;5065012;28;20484;-70
2022/03/10 01:13:45;;;;;;;11.98;7.03;;;;;;;0.91;55.06;101497.53;5064361;28;20049;-69
2022/03/10 01:16:12;;;;;;;10.82;6.65;;;;;;;0.88;54.91;101505.41;5065110;28;20132;-73
2022/03/10 01:18:40;;;;;;;11.13;6.20;;;;;;;0.84;55.10;101503.69;5064867;28;20044;-69
2022/03/10 01:21:07;;;;;;;12.27;6.70;;;;;;;0.84;55.08;101498.50;5064229;28;20540;-73
2022/03/10 01:23:35;;;;;;;15.10;8.20;;;;;;;0.80;54.97;101503.78;5062548;28;20048;-69
2022/03/10 01:26:02;;;;;;;11.13;6.28;;;;;;;0.79;55.26;101510.69;5064193;28;20214;-69
2022/03/10 01:28:28;;;;;;;20.20;8.73;;;;;;;0.77;55.00;101507.25;5063286;28;20048;-69
2022/03/10 01:30:55;;;;;;;16.50;8.00;;;;;;;0.74;55.22;101517.72;5064300;28;20055;-71
2022/03/10 01:33:22;;;;;;;15.65;7.90;;;;;;;0.70;54.93;101518.59;5064886;28;20051;-68
2022/03/10 01:35:51;;;;;;;14.75;7.95;;;;;;;0.66;55.44;101517.78;5064130;28;20528;-70
2022/03/10 01:38:18;;;;;;;15.43;7.30;;;;;;;0.61;55.58;101532.56;5064077;28;20055;-73
2022/03/10 01:40:45;;;;;;;15.18;7.93;;;;;;;0.57;55.20;101531.72;5064504;28;20044;-67
2022/03/10 01:43:12;;;;;;;14.98;7.75;;;;;;;0.56;55.17;101531.78;5064273;28;20106;-71
2022/03/10 01:45:39;;;;;;;14.65;7.75;;;;;;;0.51;55.56;101542.22;5064688;28;20036;-71
2022/03/10 01:48:06;;;;;;;15.07;7.40;;;;;;;0.48;55.34;101544.81;5064358;28;20130;-72
2022/03/10 01:50:33;;;;;;;13.10;8.13;;;;;;;0.45;55.76;101544.00;5064423;28;20135;-66
2022/03/10 01:53:03;;;;;;;11.82;7.05;;;;;;;0.45;55.44;101544.88;5062125;28;20573;-72
2022/03/10 01:55:30;;;;;;;16.83;7.75;;;;;;;0.41;55.37;101548.38;5065850;28;20135;-68
2022/03/10 01:57:57;;;;;;;14.43;8.15;;;;;;;0.36;55.52;101548.44;5067897;28;20049;-74
2022/03/10 02:00:24;;;;;;;13.20;7.30;;;;;;;0.33;55.46;101543.25;5067369;28;20049;-68
2022/03/10 02:02:51;;;;;;;16.08;7.90;;;;;;;0.30;55.63;101545.88;5067515;28;20132;-75
2022/03/10 02:05:18;;;;;;;18.38;8.02;;;;;;;0.27;55.76;101550.22;5068270;28;20044;-66
2022/03/10 02:10:31;;;;;;;20.92;9.30;;;;;;;0.21;55.98;101548.56;5066850;28;20051;-67
2022/03/10 02:12:59;;;;;;;16.30;7.90;;;;;;;0.19;55.73;101555.50;5067419;28;20464;-75
2022/03/10 02:18:12;;;;;;;;;;;;;;;0.30;55.68;101560.59;5067834;28;20153;-72
2022/03/10 02:20:40;;;;;;;16.45;9.35;;;;;;;0.10;55.54;101564.22;5066913;28;19959;-67
2022/03/10 02:23:10;;;;;;;19.88;9.40;;;;;;;0.04;56.06;101566.88;5066197;28;20101;-69
2022/03/10 02:25:37;;;;;;;22.88;8.52;;;;;;;0.01;55.89;101568.66;5067249;28;20044;-67
2022/03/10 02:28:05;;;;;;;17.45;9.98;;;;;;;-0.01;56.16;101573.84;5066212;28;20045;-67
2022/03/10 02:30:34;;;;;;;19.17;9.55;;;;;;;-0.04;56.18;101581.66;5066686;28;20078;-67
2022/03/10 02:33:01;;;;;;;17.02;10.05;;;;;;;-0.06;56.18;101573.88;5067144;28;20420;-73
2022/03/10 02:35:28;;;;;;;17.70;9.88;;;;;;;-0.08;56.24;101578.22;5066678;28;20045;-69
2022/03/10 02:37:57;;;;;;;23.67;11.80;;;;;;;-0.10;56.19;101589.50;5067161;28;20637;-68
2022/03/10 02:40:25;;;;;;;20.05;10.10;;;;;;;-0.12;56.50;101588.66;5066583;28;20056;-66
2022/03/10 02:42:53;;;;;;;22.95;9.90;;;;;;;-0.14;56.22;101587.81;5066891;28;20080;-69
2022/03/10 02:45:20;;;;;;;19.60;10.40;;;;;;;-0.16;56.35;101589.53;5067029;28;20044;-67
2022/03/10 02:47:47;;;;;;;26.25;10.20;;;;;;;-0.21;56.36;101585.25;5067804;28;20427;-67
2022/03/10 02:50:14;;;;;;;17.40;10.05;;;;;;;-0.23;56.65;101589.59;5066099;28;20052;-72
2022/03/10 02:52:43;;;;;;;18.52;9.88;;;;;;;-0.26;56.44;101599.97;5047683;28;20068;-70
2022/03/10 02:55:11;;;;;;;20.73;10.77;;;;;;;-0.28;56.60;101603.47;5067379;28;20044;-74
2022/03/10 02:57:40;;;;;;;18.42;9.13;;;;;;;-0.30;56.81;101610.41;5067913;28;20685;-74
2022/03/10 03:00:09;;;;;;;18.08;10.07;;;;;;;-0.32;56.51;101615.59;5070180;28;20072;-71
2022/03/10 03:02:37;;;;;;;13.95;7.15;;;;;;;-0.35;56.88;101615.59;5073135;28;20133;-69
2022/03/10 03:05:06;;;;;;;17.50;9.43;;;;;;;-0.36;56.71;101620.81;5071106;28;20108;-72
2022/03/10 03:07:34;;;;;;;17.67;8.07;;;;;;;-0.39;56.72;101621.69;5073324;28;20580;-72
2022/03/10 03:10:01;;;;;;;16.17;9.52;;;;;;;-0.40;57.01;101622.56;5068619;28;20116;-70
2022/03/10 03:12:28;;;;;;;19.73;9.18;;;;;;;-0.43;56.63;101627.78;5067562;28;20573;-72
2022/03/10 03:14:57;;;;;;;18.20;10.60;;;;;;;-0.44;56.55;101631.22;5067865;28;20135;-74
2022/03/10 03:17:24;;;;;;;16.42;9.25;;;;;;;-0.49;56.70;101633.84;5068042;28;20060;-70
2022/03/10 03:19:51;;;;;;;22.73;10.50;;;;;;;-0.50;56.96;101636.47;5067282;28;20044;-71
2022/03/10 03:22:18;;;;;;;14.57;8.45;;;;;;;-0.51;56.95;101639.91;5067003;28;20060;-68
2022/03/10 03:24:46;;;;;;;12.77;7.65;;;;;;;-0.54;56.74;101639.94;5068231;28;20064;-73
2022/03/10 03:27:13;;;;;;;15.65;8.20;;;;;;;-0.58;56.90;101646.84;5068477;28;20045;-70
2022/03/10 03:29:39;;;;;;;26.52;10.02;;;;;;;-0.59;56.98;101647.75;5068417;28;20051;-73
2022/03/10 03:32:08;;;;;;;17.58;9.30;;;;;;;-0.61;56.84;101649.50;5067520;28;20053;-74
2022/03/10 03:34:35;;;;;;;26.33;10.75;;;;;;;-0.64;56.94;101659.88;5062592;28;20125;-69
2022/03/10 03:37:02;;;;;;;18.02;9.10;;;;;;;-0.67;57.29;101663.31;5048670;28;20052;-69
2022/03/10 03:39:29;;;;;;;24.38;11.00;;;;;;;-0.71;57.21;101661.63;5047272;28;20051;-71
2022/03/10 03:41:56;;;;;;;16.05;8.65;;;;;;;-0.73;57.34;101668.53;5047779;28;20053;-75
2022/03/10 03:44:23;;;;;;;15.63;9.68;;;;;;;-0.76;57.18;101668.53;5047359;28;20047;-67
2022/03/10 03:46:50;;;;;;;18.52;9.40;;;;;;;-0.77;57.26;101672.03;5046590;28;20049;-74
2022/03/10 03:49:18;;;;;;;21.92;10.52;;;;;;;-0.78;57.20;101678.06;5047611;28;20136;-72
2022/03/10 03:51:45;;;;;;;17.33;9.43;;;;;;;-0.81;57.45;101683.25;5044804;28;20395;-67
2022/03/10 03:54:12;;;;;;;15.10;8.27;;;;;;;-0.86;57.08;101678.09;5046246;28;20060;-72
2022/03/10 03:56:39;;;;;;;15.32;9.00;;;;;;;-0.86;57.25;101685.03;5047251;28;20049;-73
2022/03/10 03:59:07;;;;;;;14.95;7.85;;;;;;;-0.89;57.31;101690.19;5046402;28;20045;-67
2022/03/10 04:01:34;;;;;;;19.42;10.57;;;;;;;-0.89;57.16;101695.41;5046427;28;20049;-67
2022/03/10 04:04:01;;;;;;;24.42;9.55;;;;;;;-0.91;57.03;101697.13;5046953;28;20053;-74
2022/03/10 04:06:29;;;;;;;16.67;8.63;;;;;;;-0.92;57.50;101705.75;5047265;28;20055;-69
2022/03/10 04:08:57;;;;;;;16.92;8.57;;;;;;;-0.96;57.09;101703.16;5046657;28;20045;-72
2022/03/10 04:11:24;;;;;;;18.48;9.20;;;;;;;-0.94;57.45;101707.50;5047663;28;20049;-73
2022/03/10 04:13:54;;;;;;;14.60;8.80;;;;;;;-0.98;57.58;101712.69;5048217;28;20045;-70
2022/03/10 04:16:21;;;;;;;17.65;10.55;;;;;;;-0.97;57.38;101729.13;5046720;28;20045;-72
2022/03/10 04:18:48;;;;;;;20.17;9.48;;;;;;;-0.98;57.31;101723.06;5047430;28;20061;-78
2022/03/10 04:21:15;;;;;;;20.70;9.18;;;;;;;-1.01;57.47;101717.91;5050128;28;20067;-76
2022/03/10 04:23:43;;;;;;;21.15;9.30;;;;;;;-1.02;57.36;101729.13;5053924;28;20053;-74
2022/03/10 04:26:10;;;;;;;23.65;10.27;;;;;;;-1.04;57.38;101730.84;5053714;28;20136;-70
2022/03/10 04:28:37;;;;;;;22.02;9.38;;;;;;;-1.04;57.64;101730.84;5050949;28;20051;-74
2022/03/10 04:31:04;;;;;;;18.77;9.15;;;;;;;-1.07;57.65;101733.44;5051097;28;20055;-74
2022/03/10 04:33:32;;;;;;;23.50;9.90;;;;;;;-1.10;57.46;101738.63;5051473;28;20075;-70
2022/03/10 04:35:58;;;;;;;21.88;12.75;;;;;;;-1.11;57.56;101741.25;5051414;28;20073;-69
2022/03/10 04:38:26;;;;;;;25.98;12.95;;;;;;;-1.15;57.77;101740.38;5050767;28;20132;-77
2022/03/10 04:40:54;;;;;;;26.98;11.85;;;;;;;-1.17;57.90;101737.78;5047409;28;20502;-72
2022/03/10 04:43:21;;;;;;;35.65;15.15;;;;;;;-1.20;57.79;101742.97;4997459;28;20477;-76
2022/03/10 04:45:48;;;;;;;31.83;13.40;;;;;;;-1.20;58.04;101755.06;5047771;28;20061;-76
2022/03/10 04:48:15;;;;;;;19.23;12.15;;;;;;;-1.24;58.02;101750.72;5048788;28;20045;-74
2022/03/10 04:50:44;;;;;;;32.63;16.70;;;;;;;-1.24;57.86;101767.16;5048652;28;20059;-74
2022/03/10 04:53:12;;;;;;;21.95;12.68;;;;;;;-1.25;57.88;101761.97;5047705;28;20128;-72
2022/03/10 04:55:39;;;;;;;24.88;14.80;;;;;;;-1.29;57.88;101763.69;5049741;28;20689;-76
2022/03/10 04:58:08;;;;;;;36.35;12.60;;;;;;;-1.29;57.71;101763.69;5057248;28;20040;-76
2022/03/10 05:00:35;;;;;;;26.95;11.30;;;;;;;-1.29;57.75;101771.47;5069010;28;20049;-74
2022/03/10 05:03:02;;;;;;;19.00;10.43;;;;;;;-1.32;57.64;101775.78;5068182;28;20079;-74
2022/03/10 05:05:29;;;;;;;28.35;12.38;;;;;;;-1.34;57.74;101778.38;5068099;28;20048;-72
2022/03/10 05:07:56;;;;;;;25.75;12.32;;;;;;;-1.35;57.98;101781.84;5069535;28;20049;-74
2022/03/10 05:10:25;;;;;;;38.03;13.10;;;;;;;-1.35;57.67;101784.44;5067464;28;20068;-76
2022/03/10 05:12:56;;;;;;;29.80;13.85;;;;;;;-1.36;57.96;101788.72;5067100;28;20048;-73
2022/03/10 05:15:28;;;;;;;29.98;12.95;;;;;;;-1.36;57.60;101793.91;5067867;28;20098;-73
2022/03/10 05:17:55;;;;;;;30.05;14.45;;;;;;;-1.36;57.79;101795.66;5056224;28;20036;-73
2022/03/10 05:20:24;;;;;;;27.73;14.13;;;;;;;-1.35;57.74;101800.00;5067554;28;20053;-70
2022/03/10 05:22:53;;;;;;;30.65;15.07;;;;;;;-1.36;57.82;101799.09;5066059;28;20075;-74
2022/03/10 05:25:22;;;;;;;28.02;12.48;;;;;;;-1.35;57.99;101810.34;5067838;28;20098;-69
2022/03/10 05:27:50;;;;;;;31.02;14.75;;;;;;;-1.35;57.72;101810.34;5064092;28;20094;-68
2022/03/10 05:30:19;;;;;;;30.17;13.90;;;;;;;-1.32;58.05;101822.44;5066163;28;20048;-70
2022/03/10 05:32:48;;;;;;;27.73;13.02;;;;;;;-1.32;58.04;101823.31;5058355;28;20119;-72
2022/03/10 05:35:17;;;;;;;30.58;15.20;;;;;;;-1.29;57.75;101825.06;5069388;28;20048;-77
2022/03/10 05:37:46;;;;;;;33.95;15.48;;;;;;;-1.29;57.71;101825.06;5072174;28;20041;-70
2022/03/10 05:40:14;;;;;;;27.95;14.25;;;;;;;-1.27;57.95;101823.31;5071766;28;20048;-69
2022/03/10 05:42:44;;;;;;;24.05;13.35;;;;;;;-1.25;58.02;101835.41;5075262;28;20163;-72
2022/03/10 05:45:12;;;;;;;24.20;13.38;;;;;;;-1.21;57.86;101828.50;5074859;28;20044;-75
2022/03/10 05:47:41;;;;;;;24.92;11.65;;;;;;;-1.18;58.05;101838.88;5072753;28;20055;-71
2022/03/10 05:50:11;;;;;;;22.92;10.20;;;;;;;-1.14;57.63;101843.22;5073583;28;20040;-68
2022/03/10 05:52:38;;;;;;;26.30;11.70;;;;;;;-1.10;57.93;101841.47;5068563;28;20435;-72
2022/03/10 05:55:07;;;;;;;26.58;11.35;;;;;;;-1.07;57.77;101844.94;5070541;28;20081;-70
2022/03/10 05:57:34;;;;;;;20.33;12.35;;;;;;;-1.02;58.08;101850.16;5072855;28;20048;-74
2022/03/10 06:00:01;;;;;;;25.92;15.05;;;;;;;-0.97;57.83;101851.88;5071050;28;20407;-72
2022/03/10 06:02:28;;;;;;;23.83;9.95;;;;;;;-0.91;57.65;101848.44;5068797;28;20687;-75
2022/03/10 06:05:00;;;;;;;21.70;10.73;;;;;;;-0.83;58.02;101857.09;5070379;28;20476;-70
2022/03/10 06:07:29;;;;;;;28.05;10.45;;;;;;;-0.77;57.80;101861.41;5073686;28;20048;-72
2022/03/10 06:09:56;;;;;;;18.45;11.15;;;;;;;-0.70;57.78;101870.94;5069597;28;20055;-73
2022/03/10 06:12:23;;;;;;;16.73;11.52;;;;;;;-0.63;57.82;101872.66;5070665;28;20057;-73
2022/03/10 06:14:53;;;;;;;15.38;8.55;;;;;;;-0.55;57.93;101877.84;5074839;28;20044;-70
2022/03/10 06:17:21;;;;;;;20.27;10.43;;;;;;;-0.50;57.73;101876.09;5069615;28;20045;-76
2022/03/10 06:19:48;;;;;;;15.65;7.38;;;;;;;-0.41;57.66;101891.66;5068323;28;20063;-69
2022/03/10 06:22:17;;;;;;;24.88;9.70;;;;;;;-0.35;57.67;101890.78;5066795;28;20579;-70
2022/03/10 06:24:46;;;;;;;18.13;8.35;;;;;;;-0.28;57.69;101892.53;5070044;28;20167;-69
2022/03/10 06:27:13;;;;;;;15.18;8.95;;;;;;;-0.23;57.33;101901.19;5072013;28;20702;-69
2022/03/10 06:29:40;;;;;;;15.40;10.05;;;;;;;-0.15;57.27;101897.69;5070767;28;20072;-71
2022/03/10 06:32:08;;;;;;;16.88;9.32;;;;;;;-0.11;57.35;101894.22;5068488;28;20127;-69
2022/03/10 06:34:37;;;;;;;20.52;11.68;;;;;;;-0.07;57.14;101901.16;5068045;28;20618;-69
2022/03/10 06:37:04;;;;;;;20.83;10.15;;;;;;;-0.01;57.29;101904.59;5068450;28;20055;-71
2022/03/10 06:39:31;;;;;;;20.15;12.02;;;;;;;0.13;57.18;101912.38;5069158;28;20131;-70
2022/03/10 06:42:00;;;;;;;15.80;9.50;;;;;;;0.22;56.96;101910.59;5069223;28;20239;-70
2022/03/10 06:44:27;;;;;;;18.05;9.93;;;;;;;0.28;56.54;101908.00;5070207;28;20072;-72
2022/03/10 06:46:54;;;;;;;17.50;10.23;;;;;;;0.33;56.58;101916.63;5072696;28;20062;-73
2022/03/10 06:49:22;;;;;;;15.85;9.02;;;;;;;0.37;56.46;101911.41;5073332;28;20108;-77
2022/03/10 06:51:49;;;;;;;14.13;8.70;;;;;;;0.41;55.94;101914.88;5070013;28;20131;-71
2022/03/10 06:54:17;;;;;;;16.13;8.20;;;;;;;0.45;55.88;101911.41;5072079;28;20056;-74
2022/03/10 06:56:45;;;;;;;9.00;6.13;;;;;;;0.51;55.80;101920.91;5074805;28;20040;-72
2022/03/10 06:59:14;;;;;;;13.07;7.70;;;;;;;0.60;55.71;101925.22;5072603;28;20127;-72
2022/03/10 07:01:42;;;;;;;11.68;7.30;;;;;;;0.69;55.49;101927.78;5070518;28;20048;-71
2022/03/10 07:04:09;;;;;;;11.60;5.82;;;;;;;0.81;55.18;101926.81;5070194;28;20063;-71
2022/03/10 07:06:36;;;;;;;21.35;8.35;;;;;;;0.86;55.20;101923.31;5069751;28;20411;-71
2022/03/10 07:09:04;;;;;;;14.88;8.00;;;;;;;0.94;54.57;101928.50;5070368;28;20104;-72
2022/03/10 07:11:31;;;;;;;10.27;6.30;;;;;;;1.01;54.40;101931.91;5073848;28;20128;-71
2022/03/10 07:13:58;;;;;;;14.15;6.75;;;;;;;1.07;54.55;101931.91;5070287;28;20104;-71
2022/03/10 07:16:26;;;;;;;15.45;7.85;;;;;;;1.16;54.10;101931.84;5069857;28;20626;-71
2022/03/10 07:18:53;;;;;;;12.68;5.53;;;;;;;1.26;53.84;101940.44;5069767;28;20055;-73
2022/03/10 07:21:21;;;;;;;11.38;5.70;;;;;;;1.32;53.41;101936.06;5069352;28;20518;-74
2022/03/10 07:23:48;;;;;;;12.23;5.50;;;;;;;1.42;53.19;101936.00;5067533;28;20533;-79
2022/03/10 07:26:15;;;;;;;10.38;5.75;;;;;;;1.52;53.11;101942.88;5066599;28;20595;-75
2022/03/10 07:28:43;;;;;;;10.02;5.90;;;;;;;1.65;52.47;101944.47;5070167;28;20040;-72
2022/03/10 07:31:10;;;;;;;12.20;5.80;;;;;;;1.70;52.12;101941.84;5069057;28;20055;-72
2022/03/10 07:33:39;;;;;;;8.10;3.90;;;;;;;1.74;51.36;101940.94;5068846;28;20484;-72
2022/03/10 07:36:06;;;;;;;8.77;5.13;;;;;;;1.80;50.79;101946.13;5070253;28;20506;-75
2022/03/10 07:38:33;;;;;;;12.52;6.13;;;;;;;1.87;51.05;101947.78;5074776;28;20082;-76
2022/03/10 07:41:00;;;;;;;9.00;5.05;;;;;;;2.00;50.45;101943.31;5078268;28;20270;-72
2022/03/10 07:43:27;;;;;;;9.35;4.63;;;;;;;2.01;50.16;101950.25;5078336;28;20045;-70
2022/03/10 07:45:54;;;;;;;11.10;5.38;;;;;;;2.09;50.12;101952.78;5075440;28;20515;-72
2022/03/10 07:48:21;;;;;;;12.43;6.40;;;;;;;2.21;49.74;101954.41;5074230;28;20087;-71
2022/03/10 07:50:50;;;;;;;9.93;4.07;;;;;;;2.32;49.30;101949.06;5079649;28;20048;-74
2022/03/10 07:53:19;;;;;;;9.52;5.72;;;;;;;2.38;48.73;101952.47;5074596;28;20211;-72
2022/03/10 07:55:46;;;;;;;7.63;3.28;;;;;;;2.43;48.76;101957.63;5073750;28;20493;-70
2022/03/10 07:58:13;;;;;;;9.02;5.47;;;;;;;2.43;48.61;101957.63;5073275;28;20084;-73
2022/03/10 08:00:41;;;;;;;10.73;5.32;;;;;;;2.46;47.82;101955.84;5076634;28;20076;-70
2022/03/10 08:03:08;;;;;;;8.38;4.60;;;;;;;2.48;47.30;101941.06;5076412;28;20041;-76
2022/03/10 08:05:36;;;;;;;9.48;3.97;;;;;;;2.54;46.78;101950.56;5080474;28;20067;-75
2022/03/10 08:08:05;;;;;;;8.40;4.47;;;;;;;2.59;46.47;101961.81;5079389;28;20060;-72
2022/03/10 08:10:32;;;;;;;6.22;4.38;;;;;;;2.64;45.93;101946.94;5079960;28;20059;-71
2022/03/10 08:12:59;;;;;;;7.13;3.83;;;;;;;2.72;45.45;101959.91;5081032;28;20045;-72
2022/03/10 08:15:28;;;;;;;6.65;3.83;;;;;;;2.79;45.33;101953.72;5078753;28;20132;-71
2022/03/10 08:17:55;;;;;;;7.00;3.50;;;;;;;2.92;45.36;101957.03;5078530;28;20140;-70
2022/03/10 08:20:23;;;;;;;8.13;4.63;;;;;;;3.11;45.29;101955.03;5077605;28;20055;-70
2022/03/10 08:22:50;;;;;;;7.95;3.72;;;;;;;3.20;44.64;101947.06;5074986;28;20320;-72
2022/03/10 08:25:18;;;;;;;3.95;2.67;;;;;;;3.15;43.48;101961.06;5073049;28;20075;-70
2022/03/10 08:27:47;;;;;;;9.82;5.68;;;;;;;3.15;43.00;101948.91;5077734;28;20049;-71
2022/03/10 08:30:15;;;;;;;7.13;4.35;;;;;;;3.11;43.33;101957.63;5080946;28;20048;-74
2022/03/10 08:32:44;;;;;;;8.70;4.88;;;;;;;3.20;42.45;101961.88;5075976;28;20064;-72
2022/03/10 08:35:11;;;;;;;8.80;5.00;;;;;;;3.30;41.87;101952.16;5075611;28;20048;-73
2022/03/10 08:37:38;;;;;;;7.57;3.80;;;;;;;3.37;42.01;101961.63;5073663;28;20104;-74
2022/03/10 08:40:07;;;;;;;6.95;4.63;;;;;;;3.39;41.14;101952.03;5072682;28;20124;-72
2022/03/10 08:42:35;;;;;;;10.48;5.35;;;;;;;3.45;40.40;101951.91;5074191;28;20084;-72
2022/03/10 08:45:02;;;;;;;8.40;4.07;;;;;;;3.57;40.57;101956.09;5056873;28;20044;-73
2022/03/10 08:47:30;;;;;;;6.88;4.03;;;;;;;3.72;40.64;101953.22;5077167;28;20116;-70
2022/03/10 08:49:57;;;;;;;8.02;4.32;;;;;;;3.83;40.50;101953.03;5075758;28;20048;-76
2022/03/10 08:52:24;;;;;;;11.05;4.90;;;;;;;3.95;39.91;101945.00;5069737;28;20123;-71
2022/03/10 08:54:51;;;;;;;5.75;3.75;;;;;;;4.09;40.07;101938.63;5073277;28;20045;-71
2022/03/10 08:57:18;;;;;;;8.40;4.15;;;;;;;4.13;40.20;101946.41;5071307;28;20040;-72
2022/03/10 08:59:47;;;;;;;9.63;5.03;;;;;;;4.25;40.20;101937.50;5075328;28;20072;-70
2022/03/10 09:02:14;;;;;;;6.55;3.45;;;;;;;4.45;39.92;101936.22;5075164;28;20109;-71
2022/03/10 09:04:41;;;;;;;7.72;4.93;;;;;;;4.66;39.57;101937.53;5075046;28;20223;-71
2022/03/10 09:07:08;;;;;;;7.97;4.63;;;;;;;4.73;39.22;101937.38;5073854;28;20411;-71
2022/03/10 09:09:35;;;;;;;7.43;3.90;;;;;;;4.73;39.08;101942.59;5077663;28;20048;-73
2022/03/10 09:12:02;;;;;;;6.47;3.75;;;;;;;4.85;38.52;101949.34;5077078;28;20138;-71
2022/03/10 09:14:29;;;;;;;6.30;3.42;;;;;;;4.86;38.55;101940.63;5080533;28;20064;-72
2022/03/10 09:16:57;;;;;;;8.02;4.15;;;;;;;4.78;38.29;101943.38;5078157;28;20686;-73
2022/03/10 09:19:24;;;;;;;6.72;3.38;;;;;;;4.83;38.06;101942.44;5079737;28;20181;-70
2022/03/10 09:21:51;;;;;;;6.40;3.30;;;;;;;4.91;37.95;101950.97;5075798;28;20186;-75
2022/03/10 09:24:19;;;;;;;7.35;4.55;;;;;;;5.00;37.91;101949.91;5074588;28;20075;-71
2022/03/10 09:26:46;;;;;;;8.10;3.58;;;;;;;5.02;37.54;101946.34;5068576;28;20054;-71
2022/03/10 09:29:13;;;;;;;6.13;3.45;;;;;;;5.32;36.99;101949.19;5068199;28;20607;-70
2022/03/10 09:31:40;;;;;;;6.70;3.90;;;;;;;5.28;36.69;101930.06;5066129;28;20128;-70
2022/03/10 09:34:08;;;;;;;5.60;3.33;;;;;;;5.29;36.36;101946.63;5069962;28;20117;-72
2022/03/10 09:36:35;;;;;;;6.47;4.13;;;;;;;5.16;36.19;101938.19;5069488;28;20058;-71
2022/03/10 09:39:02;;;;;;;5.75;3.72;;;;;;;5.12;36.14;101940.03;5070559;28;20072;-70
2022/03/10 09:41:29;;;;;;;6.18;3.22;;;;;;;5.15;36.11;101945.19;5072144;28;20136;-70
2022/03/10 09:43:57;;;;;;;5.43;3.47;;;;;;;5.19;36.05;101932.91;5070247;28;20591;-70
2022/03/10 09:46:24;;;;;;;7.07;3.55;;;;;;;5.19;35.56;101929.41;5071998;28;20462;-73
2022/03/10 09:48:52;;;;;;;7.25;3.40;;;;;;;4.95;35.38;101937.78;5071122;28;20132;-74
2022/03/10 09:51:23;;;;;;;8.02;4.30;;;;;;;5.01;35.57;101944.66;5071170;28;20044;-71
2022/03/10 09:53:50;;;;;;;5.20;3.47;;;;;;;5.20;35.35;101947.69;5066594;28;20041;-71
2022/03/10 09:56:21;;;;;;;6.13;3.85;;;;;;;5.11;35.02;101946.16;5069871;28;20053;-70
2022/03/10 09:58:48;;;;;;;3.97;2.72;;;;;;;5.01;34.46;101946.41;5067792;28;20064;-68
2022/03/10 10:01:15;;;;;;;5.43;2.83;;;;;;;4.88;34.23;101946.66;5068350;28;20289;-71
2022/03/10 10:03:42;;;;;;;5.60;2.78;;;;;;;4.81;34.36;101946.81;5067763;28;20080;-72
2022/03/10 10:06:09;;;;;;;4.55;2.58;;;;;;;4.87;34.27;101954.56;5067911;28;20044;-71
2022/03/10 10:08:39;;;;;;;4.07;2.35;;;;;;;4.85;33.94;101945.88;5067999;28;20053;-69
2022/03/10 10:11:06;;;;;;;4.32;2.78;;;;;;;4.97;33.68;101946.47;5067563;28;20084;-72
2022/03/10 10:13:37;;;;;;;4.60;3.15;;;;;;;5.04;33.59;101956.78;5067487;28;20063;-71
2022/03/10 10:16:06;;;;;;;6.15;2.70;;;;;;;5.05;33.67;101953.28;5068442;28;20045;-70
2022/03/10 10:18:34;;;;;;;8.13;3.13;;;;;;;5.22;33.34;101959.03;5068073;28;20468;-69
2022/03/10 10:21:01;;;;;;;7.65;4.15;;;;;;;5.29;33.51;101962.34;5071188;28;20132;-71
2022/03/10 10:23:31;;;;;;;6.88;4.63;;;;;;;5.34;33.45;101960.47;5070332;28;20052;-69
2022/03/10 10:26:01;;;;;;;5.63;3.28;;;;;;;5.34;33.45;101961.34;5070786;28;20044;-71
2022/03/10 10:28:29;;;;;;;6.93;3.60;;;;;;;5.39;33.55;101963.00;5070039;28;20426;-72
2022/03/10 10:30:59;;;;;;;6.78;3.53;;;;;;;5.41;33.01;101967.31;5070275;28;20074;-71
2022/03/10 10:33:26;;;;;;;4.10;2.70;;;;;;;5.47;32.76;101964.53;5069708;28;20068;-70
2022/03/10 10:36:12;;;;;;;3.10;2.65;;;;;;;5.61;32.05;101958.09;5069457;28;20048;-72
2022/03/10 10:38:39;;;;;;;6.00;3.03;;;;;;;5.57;31.82;101962.56;5071405;28;20052;-73
2022/03/10 10:41:24;;;;;;;6.65;3.40;;;;;;;5.48;31.98;101968.88;5069864;28;20071;-72
2022/03/10 10:43:53;;;;;;;5.03;2.40;;;;;;;5.49;32.10;101959.25;5073052;28;20080;-71
2022/03/10 10:46:32;;;;;;;6.47;2.97;;;;;;;5.56;31.88;101960.81;5071452;28;20075;-71
2022/03/10 10:49:01;;;;;;;6.47;2.65;;;;;;;5.53;31.58;101961.78;5077097;28;20041;-72
2022/03/10 10:51:39;;;;;;;6.10;2.85;;;;;;;5.55;31.37;101965.22;5076244;28;20132;-74
2022/03/10 10:54:08;;;;;;;3.90;2.38;;;;;;;5.46;30.77;101960.19;5075511;28;20083;-70
2022/03/10 10:56:45;;;;;;;7.75;3.65;;;;;;;5.54;30.79;101963.47;5075084;28;20080;-77
2022/03/10 10:59:28;;;;;;;6.70;3.35;;;;;;;5.86;30.81;101960.97;5076760;28;20088;-71
2022/03/10 11:02:06;;;;;;;5.55;2.70;;;;;;;5.93;30.37;101966.03;5077079;28;20107;-71
2022/03/10 11:04:33;;;;;;;7.43;3.65;;;;;;;5.94;30.05;101973.00;5074424;28;20071;-71
2022/03/10 11:07:00;;;;;;;7.75;3.53;;;;;;;5.84;29.82;101968.88;5071066;28;20104;-71
2022/03/10 11:09:27;;;;;;;9.10;3.17;;;;;;;5.74;29.75;101972.63;5072033;28;20123;-71
2022/03/10 11:11:56;;;;;;;5.78;3.33;;;;;;;5.77;29.68;101980.44;5070633;28;20104;-72
2022/03/10 11:14:22;;;;;;;6.20;3.33;;;;;;;5.84;29.67;101976.75;5036046;28;20084;-69
2022/03/10 11:16:50;;;;;;;4.85;2.72;;;;;;;5.85;30.09;101974.97;5071344;28;20455;-69
2022/03/10 11:19:20;;;;;;;6.80;3.50;;;;;;;5.71;29.92;101964.84;5075134;28;20545;-71
2022/03/10 11:22:04;;;;;;;4.57;2.30;;;;;;;5.75;30.16;101966.50;5071952;28;20072;-72
2022/03/10 11:24:47;;;;;;;4.65;2.67;;;;;;;5.87;29.39;101971.44;5070846;28;20132;-70
2022/03/10 11:27:19;;;;;;;4.85;2.55;;;;;;;5.85;29.62;101967.13;5071735;28;20087;-73
2022/03/10 11:29:50;;;;;;;5.07;2.67;;;;;;;5.93;29.29;101966.03;5071237;28;20120;-70
2022/03/10 11:32:18;;;;;;;5.05;3.30;;;;;;;6.08;28.77;101966.56;5067747;28;20215;-75